sensor_id;sensor_type;location;lat;lon;timestamp;P1;durP1;ratioP1;P2;durP2;ratioP2
33862;SDS011;20158;51.436;-2.742;2023-06-26T00:01:28;1.92;;;1.13;;
33862;SDS011;20158;51.436;-2.742;2023-06-26T00:03:57;4.13;;;1.20;;
33862;SDS011;20158;51.436;-2.742;2023-06-26T00:06:24;2.53;;;1.10;;
33862;SDS011;20158;51.436;-2.742;2023-06-26T00:08:54;1.50;;;0.88;;
33862;SDS011;20158;51.436;-2.742;2023-06-26T00:11:21;2.92;;;1.10;;
33862;SDS011;20158;51.436;-2.742;2023-06-26T00:13:47;3.08;;;1.35;;
33862;SDS011;20158;51.436;-2.742;2023-06-26T00:16:14;3.55;;;0.93;;
33862;SDS011;20158;51.436;-2.742;2023-06-26T00:18:40;3.20;;;1.00;;
33862;SDS011;20158;51.436;-2.742;2023-06-26T00:21:06;1.85;;;0.88;;
33862;SDS011;20158;51.436;-2.742;2023-06-26T00:23:33;3.25;;;1.40;;
33862;SDS011;20158;51.436;-2.742;2023-06-26T00:26:03;1.63;;;0.90;;
33862;SDS011;20158;51.436;-2.742;2023-06-26T00:28:29;2.53;;;1.20;;
33862;SDS011;20158;51.436;-2.742;2023-06-26T00:30:57;2.58;;;0.98;;
33862;SDS011;20158;51.436;-2.742;2023-06-26T00:33:23;5.72;;;1.42;;
33862;SDS011;20158;51.436;-2.742;2023-06-26T00:35:50;1.50;;;1.10;;
33862;SDS011;20158;51.436;-2.742;2023-06-26T00:38:16;3.40;;;1.35;;
33862;SDS011;20158;51.436;-2.742;2023-06-26T00:40:43;1.55;;;1.20;;
33862;SDS011;20158;51.436;-2.742;2023-06-26T00:43:10;2.30;;;0.85;;
33862;SDS011;20158;51.436;-2.742;2023-06-26T00:45:45;2.75;;;1.00;;
33862;SDS011;20158;51.436;-2.742;2023-06-26T00:48:13;3.67;;;1.42;;
33862;SDS011;20158;51.436;-2.742;2023-06-26T00:50:40;2.95;;;1.15;;
33862;SDS011;20158;51.436;-2.742;2023-06-26T00:53:08;2.60;;;0.93;;
33862;SDS011;20158;51.436;-2.742;2023-06-26T00:55:36;2.38;;;0.90;;
33862;SDS011;20158;51.436;-2.742;2023-06-26T00:58:03;2.92;;;1.23;;
33862;SDS011;20158;51.436;-2.742;2023-06-26T01:00:30;1.70;;;1.02;;
33862;SDS011;20158;51.436;-2.742;2023-06-26T01:02:57;3.28;;;1.40;;
33862;SDS011;20158;51.436;-2.742;2023-06-26T01:05:26;3.83;;;1.08;;
33862;SDS011;20158;51.436;-2.742;2023-06-26T01:07:54;2.25;;;1.00;;
33862;SDS011;20158;51.436;-2.742;2023-06-26T01:10:24;3.60;;;1.05;;
33862;SDS011;20158;51.436;-2.742;2023-06-26T01:12:53;4.18;;;1.25;;
33862;SDS011;20158;51.436;-2.742;2023-06-26T01:15:19;3.15;;;1.02;;
33862;SDS011;20158;51.436;-2.742;2023-06-26T01:17:45;2.50;;;0.95;;
33862;SDS011;20158;51.436;-2.742;2023-06-26T01:20:12;2.88;;;1.40;;
33862;SDS011;20158;51.436;-2.742;2023-06-26T01:22:47;2.22;;;0.90;;
33862;SDS011;20158;51.436;-2.742;2023-06-26T01:25:35;1.85;;;0.82;;
33862;SDS011;20158;51.436;-2.742;2023-06-26T01:28:04;2.53;;;1.02;;
33862;SDS011;20158;51.436;-2.742;2023-06-26T01:30:31;2.25;;;1.27;;
33862;SDS011;20158;51.436;-2.742;2023-06-26T01:33:05;2.75;;;1.10;;
33862;SDS011;20158;51.436;-2.742;2023-06-26T01:35:31;3.10;;;1.27;;
33862;SDS011;20158;51.436;-2.742;2023-06-26T01:38:14;2.40;;;1.08;;
33862;SDS011;20158;51.436;-2.742;2023-06-26T01:40:42;2.40;;;0.82;;
33862;SDS011;20158;51.436;-2.742;2023-06-26T01:46:27;4.38;;;1.00;;
33862;SDS011;20158;51.436;-2.742;2023-06-26T01:51:58;3.20;;;1.30;;
33862;SDS011;20158;51.436;-2.742;2023-06-26T01:54:47;2.05;;;1.00;;
33862;SDS011;20158;51.436;-2.742;2023-06-26T01:57:33;3.35;;;1.15;;
33862;SDS011;20158;51.436;-2.742;2023-06-26T02:00:02;2.50;;;1.13;;
33862;SDS011;20158;51.436;-2.742;2023-06-26T02:02:40;2.17;;;1.02;;
33862;SDS011;20158;51.436;-2.742;2023-06-26T02:05:08;4.72;;;1.27;;
33862;SDS011;20158;51.436;-2.742;2023-06-26T02:07:35;2.58;;;1.10;;
33862;SDS011;20158;51.436;-2.742;2023-06-26T02:10:02;3.50;;;1.10;;
33862;SDS011;20158;51.436;-2.742;2023-06-26T02:12:29;2.58;;;1.08;;
33862;SDS011;20158;51.436;-2.742;2023-06-26T02:14:55;6.13;;;1.38;;
33862;SDS011;20158;51.436;-2.742;2023-06-26T02:17:24;2.90;;;1.08;;
33862;SDS011;20158;51.436;-2.742;2023-06-26T02:19:54;3.10;;;1.30;;
33862;SDS011;20158;51.436;-2.742;2023-06-26T02:22:20;2.13;;;0.88;;
33862;SDS011;20158;51.436;-2.742;2023-06-26T02:24:47;3.95;;;1.38;;
33862;SDS011;20158;51.436;-2.742;2023-06-26T02:27:14;2.10;;;0.98;;
33862;SDS011;20158;51.436;-2.742;2023-06-26T02:29:40;2.42;;;0.93;;
33862;SDS011;20158;51.436;-2.742;2023-06-26T02:32:07;4.03;;;1.73;;
33862;SDS011;20158;51.436;-2.742;2023-06-26T02:34:34;3.03;;;1.20;;
33862;SDS011;20158;51.436;-2.742;2023-06-26T02:37:01;5.03;;;1.70;;
33862;SDS011;20158;51.436;-2.742;2023-06-26T02:39:27;2.53;;;1.10;;
33862;SDS011;20158;51.436;-2.742;2023-06-26T02:41:54;3.83;;;1.73;;
33862;SDS011;20158;51.436;-2.742;2023-06-26T02:44:22;6.03;;;1.38;;
33862;SDS011;20158;51.436;-2.742;2023-06-26T02:46:48;2.70;;;1.10;;
33862;SDS011;20158;51.436;-2.742;2023-06-26T02:49:14;5.32;;;1.92;;
33862;SDS011;20158;51.436;-2.742;2023-06-26T02:51:41;2.50;;;1.17;;
33862;SDS011;20158;51.436;-2.742;2023-06-26T02:54:19;2.08;;;1.10;;
33862;SDS011;20158;51.436;-2.742;2023-06-26T02:56:50;3.15;;;1.08;;
33862;SDS011;20158;51.436;-2.742;2023-06-26T02:59:24;5.00;;;1.30;;
33862;SDS011;20158;51.436;-2.742;2023-06-26T03:01:52;2.90;;;1.38;;
33862;SDS011;20158;51.436;-2.742;2023-06-26T03:04:19;3.50;;;1.02;;
33862;SDS011;20158;51.436;-2.742;2023-06-26T03:06:47;2.75;;;1.17;;
33862;SDS011;20158;51.436;-2.742;2023-06-26T03:09:14;2.58;;;1.00;;
33862;SDS011;20158;51.436;-2.742;2023-06-26T03:11:42;3.65;;;1.42;;
33862;SDS011;20158;51.436;-2.742;2023-06-26T03:14:09;2.97;;;1.02;;
33862;SDS011;20158;51.436;-2.742;2023-06-26T03:16:36;4.18;;;1.20;;
33862;SDS011;20158;51.436;-2.742;2023-06-26T03:19:02;4.68;;;1.73;;
33862;SDS011;20158;51.436;-2.742;2023-06-26T03:21:30;3.45;;;1.08;;
33862;SDS011;20158;51.436;-2.742;2023-06-26T03:23:57;1.70;;;0.75;;
33862;SDS011;20158;51.436;-2.742;2023-06-26T03:26:23;3.10;;;1.50;;
33862;SDS011;20158;51.436;-2.742;2023-06-26T03:28:53;2.35;;;1.40;;
33862;SDS011;20158;51.436;-2.742;2023-06-26T03:31:20;3.72;;;1.08;;
33862;SDS011;20158;51.436;-2.742;2023-06-26T03:33:46;3.63;;;1.60;;
33862;SDS011;20158;51.436;-2.742;2023-06-26T03:36:12;1.90;;;0.93;;
33862;SDS011;20158;51.436;-2.742;2023-06-26T03:38:38;3.08;;;1.30;;
33862;SDS011;20158;51.436;-2.742;2023-06-26T03:41:04;3.40;;;1.55;;
33862;SDS011;20158;51.436;-2.742;2023-06-26T03:43:30;2.85;;;1.30;;
33862;SDS011;20158;51.436;-2.742;2023-06-26T03:46:16;2.97;;;1.75;;
33862;SDS011;20158;51.436;-2.742;2023-06-26T03:48:42;1.98;;;1.10;;
33862;SDS011;20158;51.436;-2.742;2023-06-26T03:51:08;2.63;;;1.05;;
33862;SDS011;20158;51.436;-2.742;2023-06-26T03:53:34;3.00;;;1.40;;
33862;SDS011;20158;51.436;-2.742;2023-06-26T03:56:00;3.85;;;1.52;;
33862;SDS011;20158;51.436;-2.742;2023-06-26T03:58:26;3.03;;;1.58;;
33862;SDS011;20158;51.436;-2.742;2023-06-26T04:00:52;2.85;;;1.20;;
33862;SDS011;20158;51.436;-2.742;2023-06-26T04:03:19;3.05;;;1.73;;
33862;SDS011;20158;51.436;-2.742;2023-06-26T04:05:46;2.13;;;1.20;;
33862;SDS011;20158;51.436;-2.742;2023-06-26T04:08:12;3.45;;;1.60;;
33862;SDS011;20158;51.436;-2.742;2023-06-26T04:10:38;2.78;;;0.93;;
33862;SDS011;20158;51.436;-2.742;2023-06-26T04:13:04;3.65;;;1.30;;
33862;SDS011;20158;51.436;-2.742;2023-06-26T04:15:30;2.58;;;1.17;;
33862;SDS011;20158;51.436;-2.742;2023-06-26T04:17:56;2.95;;;1.33;;
33862;SDS011;20158;51.436;-2.742;2023-06-26T04:20:22;3.00;;;0.95;;
33862;SDS011;20158;51.436;-2.742;2023-06-26T04:22:48;2.28;;;1.00;;
33862;SDS011;20158;51.436;-2.742;2023-06-26T04:25:14;2.17;;;1.13;;
33862;SDS011;20158;51.436;-2.742;2023-06-26T04:27:40;2.38;;;1.45;;
33862;SDS011;20158;51.436;-2.742;2023-06-26T04:30:06;3.55;;;1.40;;
33862;SDS011;20158;51.436;-2.742;2023-06-26T04:32:33;2.65;;;1.40;;
33862;SDS011;20158;51.436;-2.742;2023-06-26T04:34:59;5.15;;;1.52;;
33862;SDS011;20158;51.436;-2.742;2023-06-26T04:37:25;2.65;;;1.00;;
33862;SDS011;20158;51.436;-2.742;2023-06-26T04:39:51;2.35;;;1.27;;
33862;SDS011;20158;51.436;-2.742;2023-06-26T04:42:17;3.35;;;1.58;;
33862;SDS011;20158;51.436;-2.742;2023-06-26T04:44:44;3.33;;;1.17;;
33862;SDS011;20158;51.436;-2.742;2023-06-26T04:47:10;2.38;;;1.33;;
33862;SDS011;20158;51.436;-2.742;2023-06-26T04:49:36;2.00;;;1.10;;
33862;SDS011;20158;51.436;-2.742;2023-06-26T04:52:02;4.07;;;1.30;;
33862;SDS011;20158;51.436;-2.742;2023-06-26T04:54:29;3.15;;;1.45;;
33862;SDS011;20158;51.436;-2.742;2023-06-26T04:56:56;2.80;;;1.20;;
33862;SDS011;20158;51.436;-2.742;2023-06-26T04:59:22;2.17;;;1.25;;
33862;SDS011;20158;51.436;-2.742;2023-06-26T05:01:48;2.38;;;1.00;;
33862;SDS011;20158;51.436;-2.742;2023-06-26T05:04:14;3.17;;;1.42;;
33862;SDS011;20158;51.436;-2.742;2023-06-26T05:06:41;3.35;;;1.33;;
33862;SDS011;20158;51.436;-2.742;2023-06-26T05:09:07;3.72;;;1.40;;
33862;SDS011;20158;51.436;-2.742;2023-06-26T05:11:33;4.32;;;1.65;;
33862;SDS011;20158;51.436;-2.742;2023-06-26T05:13:59;3.13;;;1.60;;
33862;SDS011;20158;51.436;-2.742;2023-06-26T05:16:25;3.25;;;1.33;;
33862;SDS011;20158;51.436;-2.742;2023-06-26T05:18:51;2.78;;;1.00;;
33862;SDS011;20158;51.436;-2.742;2023-06-26T05:21:17;4.22;;;1.60;;
33862;SDS011;20158;51.436;-2.742;2023-06-26T05:23:43;4.93;;;1.98;;
33862;SDS011;20158;51.436;-2.742;2023-06-26T05:26:12;3.03;;;1.50;;
33862;SDS011;20158;51.436;-2.742;2023-06-26T05:28:39;4.18;;;1.70;;
33862;SDS011;20158;51.436;-2.742;2023-06-26T05:31:05;2.20;;;1.27;;
33862;SDS011;20158;51.436;-2.742;2023-06-26T05:33:31;2.90;;;1.63;;
33862;SDS011;20158;51.436;-2.742;2023-06-26T05:36:00;2.33;;;1.60;;
33862;SDS011;20158;51.436;-2.742;2023-06-26T05:38:30;3.33;;;1.42;;
33862;SDS011;20158;51.436;-2.742;2023-06-26T05:40:56;3.25;;;1.58;;
33862;SDS011;20158;51.436;-2.742;2023-06-26T05:43:22;4.05;;;1.33;;
33862;SDS011;20158;51.436;-2.742;2023-06-26T05:45:48;3.17;;;1.30;;
33862;SDS011;20158;51.436;-2.742;2023-06-26T05:48:14;2.42;;;1.23;;
33862;SDS011;20158;51.436;-2.742;2023-06-26T05:50:41;3.22;;;1.52;;
33862;SDS011;20158;51.436;-2.742;2023-06-26T05:53:09;4.63;;;2.13;;
33862;SDS011;20158;51.436;-2.742;2023-06-26T05:55:35;4.63;;;1.80;;
33862;SDS011;20158;51.436;-2.742;2023-06-26T05:58:02;3.67;;;1.63;;
33862;SDS011;20158;51.436;-2.742;2023-06-26T06:00:28;2.10;;;1.35;;
33862;SDS011;20158;51.436;-2.742;2023-06-26T06:02:55;4.35;;;1.55;;
33862;SDS011;20158;51.436;-2.742;2023-06-26T06:05:21;3.55;;;1.38;;
33862;SDS011;20158;51.436;-2.742;2023-06-26T06:07:47;3.60;;;1.60;;
33862;SDS011;20158;51.436;-2.742;2023-06-26T06:10:14;4.82;;;1.63;;
33862;SDS011;20158;51.436;-2.742;2023-06-26T06:12:40;3.78;;;1.67;;
33862;SDS011;20158;51.436;-2.742;2023-06-26T06:15:06;4.18;;;1.65;;
33862;SDS011;20158;51.436;-2.742;2023-06-26T06:17:33;5.30;;;2.08;;
33862;SDS011;20158;51.436;-2.742;2023-06-26T06:19:59;6.18;;;1.92;;
33862;SDS011;20158;51.436;-2.742;2023-06-26T06:22:25;4.25;;;1.17;;
33862;SDS011;20158;51.436;-2.742;2023-06-26T06:24:51;3.78;;;1.42;;
33862;SDS011;20158;51.436;-2.742;2023-06-26T06:27:17;3.80;;;1.55;;
33862;SDS011;20158;51.436;-2.742;2023-06-26T06:29:43;3.47;;;1.80;;
33862;SDS011;20158;51.436;-2.742;2023-06-26T06:32:09;8.30;;;2.08;;
33862;SDS011;20158;51.436;-2.742;2023-06-26T06:34:35;4.35;;;1.40;;
33862;SDS011;20158;51.436;-2.742;2023-06-26T06:37:02;4.82;;;2.03;;
33862;SDS011;20158;51.436;-2.742;2023-06-26T06:39:29;10.45;;;3.90;;
33862;SDS011;20158;51.436;-2.742;2023-06-26T06:41:55;8.70;;;3.17;;
33862;SDS011;20158;51.436;-2.742;2023-06-26T06:44:21;7.80;;;3.85;;
33862;SDS011;20158;51.436;-2.742;2023-06-26T06:46:48;10.98;;;3.40;;
33862;SDS011;20158;51.436;-2.742;2023-06-26T06:49:14;10.55;;;3.20;;
33862;SDS011;20158;51.436;-2.742;2023-06-26T06:51:40;10.88;;;3.40;;
33862;SDS011;20158;51.436;-2.742;2023-06-26T06:54:06;8.25;;;3.28;;
33862;SDS011;20158;51.436;-2.742;2023-06-26T06:56:32;7.88;;;3.10;;
33862;SDS011;20158;51.436;-2.742;2023-06-26T06:58:59;6.10;;;2.70;;
33862;SDS011;20158;51.436;-2.742;2023-06-26T07:01:25;9.10;;;3.20;;
33862;SDS011;20158;51.436;-2.742;2023-06-26T07:03:50;11.05;;;2.72;;
33862;SDS011;20158;51.436;-2.742;2023-06-26T07:06:17;6.25;;;2.75;;
33862;SDS011;20158;51.436;-2.742;2023-06-26T07:08:48;5.93;;;2.42;;
33862;SDS011;20158;51.436;-2.742;2023-06-26T07:11:15;3.75;;;2.28;;
33862;SDS011;20158;51.436;-2.742;2023-06-26T07:13:41;4.43;;;2.25;;
33862;SDS011;20158;51.436;-2.742;2023-06-26T07:16:07;5.47;;;2.65;;
33862;SDS011;20158;51.436;-2.742;2023-06-26T07:18:37;5.72;;;2.70;;
33862;SDS011;20158;51.436;-2.742;2023-06-26T07:21:04;5.43;;;2.05;;
33862;SDS011;20158;51.436;-2.742;2023-06-26T07:23:35;4.55;;;1.98;;
33862;SDS011;20158;51.436;-2.742;2023-06-26T07:26:01;7.35;;;2.22;;
33862;SDS011;20158;51.436;-2.742;2023-06-26T07:28:28;5.40;;;1.80;;
33862;SDS011;20158;51.436;-2.742;2023-06-26T07:30:53;4.30;;;2.13;;
33862;SDS011;20158;51.436;-2.742;2023-06-26T07:33:20;3.15;;;1.67;;
33862;SDS011;20158;51.436;-2.742;2023-06-26T07:35:46;4.13;;;1.40;;
33862;SDS011;20158;51.436;-2.742;2023-06-26T07:38:12;3.10;;;1.70;;
33862;SDS011;20158;51.436;-2.742;2023-06-26T07:40:39;3.20;;;1.58;;
33862;SDS011;20158;51.436;-2.742;2023-06-26T07:43:05;6.03;;;1.70;;
33862;SDS011;20158;51.436;-2.742;2023-06-26T07:45:31;4.57;;;1.90;;
33862;SDS011;20158;51.436;-2.742;2023-06-26T07:47:57;3.67;;;1.67;;
33862;SDS011;20158;51.436;-2.742;2023-06-26T07:50:26;3.38;;;1.60;;
33862;SDS011;20158;51.436;-2.742;2023-06-26T07:52:52;3.38;;;2.10;;
33862;SDS011;20158;51.436;-2.742;2023-06-26T07:55:18;4.80;;;1.95;;
33862;SDS011;20158;51.436;-2.742;2023-06-26T07:57:44;4.47;;;2.17;;
33862;SDS011;20158;51.436;-2.742;2023-06-26T08:00:11;3.78;;;2.30;;
33862;SDS011;20158;51.436;-2.742;2023-06-26T08:02:40;5.72;;;2.03;;
33862;SDS011;20158;51.436;-2.742;2023-06-26T08:05:06;4.57;;;1.50;;
33862;SDS011;20158;51.436;-2.742;2023-06-26T08:07:32;6.43;;;1.80;;
33862;SDS011;20158;51.436;-2.742;2023-06-26T08:09:59;3.03;;;1.48;;
33862;SDS011;20158;51.436;-2.742;2023-06-26T08:12:28;5.00;;;2.13;;
33862;SDS011;20158;51.436;-2.742;2023-06-26T08:14:54;2.75;;;1.63;;
33862;SDS011;20158;51.436;-2.742;2023-06-26T08:17:20;4.15;;;1.70;;
33862;SDS011;20158;51.436;-2.742;2023-06-26T08:19:49;3.45;;;1.70;;
33862;SDS011;20158;51.436;-2.742;2023-06-26T08:22:15;4.00;;;1.85;;
33862;SDS011;20158;51.436;-2.742;2023-06-26T08:24:44;3.80;;;1.40;;
33862;SDS011;20158;51.436;-2.742;2023-06-26T08:27:10;4.05;;;1.88;;
33862;SDS011;20158;51.436;-2.742;2023-06-26T08:29:36;3.00;;;1.35;;
33862;SDS011;20158;51.436;-2.742;2023-06-26T08:32:02;2.95;;;1.52;;
33862;SDS011;20158;51.436;-2.742;2023-06-26T08:34:28;3.75;;;1.58;;
33862;SDS011;20158;51.436;-2.742;2023-06-26T08:36:54;3.55;;;1.45;;
33862;SDS011;20158;51.436;-2.742;2023-06-26T08:39:20;2.45;;;1.30;;
33862;SDS011;20158;51.436;-2.742;2023-06-26T08:41:46;6.40;;;2.60;;
33862;SDS011;20158;51.436;-2.742;2023-06-26T08:44:22;4.90;;;2.13;;
33862;SDS011;20158;51.436;-2.742;2023-06-26T08:46:50;6.45;;;2.25;;
33862;SDS011;20158;51.436;-2.742;2023-06-26T08:54:26;4.63;;;2.13;;
33862;SDS011;20158;51.436;-2.742;2023-06-26T08:56:57;6.88;;;2.42;;
33862;SDS011;20158;51.436;-2.742;2023-06-26T08:59:24;6.30;;;2.00;;
33862;SDS011;20158;51.436;-2.742;2023-06-26T09:01:51;5.47;;;2.17;;
33862;SDS011;20158;51.436;-2.742;2023-06-26T09:04:18;6.35;;;2.20;;
33862;SDS011;20158;51.436;-2.742;2023-06-26T09:06:48;6.65;;;2.63;;
33862;SDS011;20158;51.436;-2.742;2023-06-26T09:09:14;4.28;;;1.70;;
33862;SDS011;20158;51.436;-2.742;2023-06-26T09:11:41;4.55;;;2.00;;
33862;SDS011;20158;51.436;-2.742;2023-06-26T09:14:10;5.45;;;1.92;;
33862;SDS011;20158;51.436;-2.742;2023-06-26T09:16:40;8.02;;;1.77;;
33862;SDS011;20158;51.436;-2.742;2023-06-26T09:19:11;4.93;;;1.70;;
33862;SDS011;20158;51.436;-2.742;2023-06-26T09:21:41;3.80;;;1.90;;
33862;SDS011;20158;51.436;-2.742;2023-06-26T09:24:09;3.50;;;1.50;;
33862;SDS011;20158;51.436;-2.742;2023-06-26T09:26:39;2.95;;;1.50;;
33862;SDS011;20158;51.436;-2.742;2023-06-26T09:29:06;4.38;;;1.88;;
33862;SDS011;20158;51.436;-2.742;2023-06-26T09:31:39;5.60;;;1.58;;
33862;SDS011;20158;51.436;-2.742;2023-06-26T09:34:05;2.65;;;1.17;;
33862;SDS011;20158;51.436;-2.742;2023-06-26T09:36:32;3.75;;;1.38;;
33862;SDS011;20158;51.436;-2.742;2023-06-26T09:39:02;5.88;;;1.88;;
33862;SDS011;20158;51.436;-2.742;2023-06-26T09:41:30;5.22;;;1.90;;
33862;SDS011;20158;51.436;-2.742;2023-06-26T09:44:00;11.57;;;3.83;;
33862;SDS011;20158;51.436;-2.742;2023-06-26T09:46:29;18.63;;;5.85;;
33862;SDS011;20158;51.436;-2.742;2023-06-26T09:49:08;29.20;;;8.57;;
33862;SDS011;20158;51.436;-2.742;2023-06-26T09:51:44;28.73;;;9.77;;
33862;SDS011;20158;51.436;-2.742;2023-06-26T09:54:11;23.77;;;6.55;;
33862;SDS011;20158;51.436;-2.742;2023-06-26T09:56:40;26.83;;;7.68;;
33862;SDS011;20158;51.436;-2.742;2023-06-26T09:59:12;20.85;;;6.45;;
33862;SDS011;20158;51.436;-2.742;2023-06-26T10:01:42;22.00;;;7.20;;
33862;SDS011;20158;51.436;-2.742;2023-06-26T10:04:11;29.60;;;7.40;;
33862;SDS011;20158;51.436;-2.742;2023-06-26T10:06:42;20.08;;;6.85;;
33862;SDS011;20158;51.436;-2.742;2023-06-26T10:09:19;18.02;;;6.60;;
33862;SDS011;20158;51.436;-2.742;2023-06-26T10:12:02;17.13;;;6.60;;
33862;SDS011;20158;51.436;-2.742;2023-06-26T10:14:33;21.35;;;7.45;;
33862;SDS011;20158;51.436;-2.742;2023-06-26T10:17:05;16.23;;;6.18;;
33862;SDS011;20158;51.436;-2.742;2023-06-26T10:19:35;17.40;;;6.10;;
33862;SDS011;20158;51.436;-2.742;2023-06-26T10:22:05;16.63;;;5.95;;
33862;SDS011;20158;51.436;-2.742;2023-06-26T10:24:33;16.70;;;6.95;;
33862;SDS011;20158;51.436;-2.742;2023-06-26T10:27:08;13.85;;;6.75;;
33862;SDS011;20158;51.436;-2.742;2023-06-26T10:29:54;15.57;;;6.15;;
33862;SDS011;20158;51.436;-2.742;2023-06-26T10:32:28;15.13;;;6.00;;
33862;SDS011;20158;51.436;-2.742;2023-06-26T10:34:57;14.55;;;6.18;;
33862;SDS011;20158;51.436;-2.742;2023-06-26T10:37:43;11.05;;;5.47;;
33862;SDS011;20158;51.436;-2.742;2023-06-26T10:40:10;13.60;;;5.55;;
33862;SDS011;20158;51.436;-2.742;2023-06-26T10:42:38;13.60;;;5.35;;
33862;SDS011;20158;51.436;-2.742;2023-06-26T10:47:46;10.68;;;4.57;;
33862;SDS011;20158;51.436;-2.742;2023-06-26T10:50:20;13.23;;;4.80;;
33862;SDS011;20158;51.436;-2.742;2023-06-26T10:55:39;6.82;;;3.83;;
33862;SDS011;20158;51.436;-2.742;2023-06-26T11:06:29;6.38;;;2.88;;
33862;SDS011;20158;51.436;-2.742;2023-06-26T11:11:54;6.63;;;2.90;;
33862;SDS011;20158;51.436;-2.742;2023-06-26T11:14:25;5.00;;;2.78;;
33862;SDS011;20158;51.436;-2.742;2023-06-26T11:16:54;6.95;;;2.95;;
33862;SDS011;20158;51.436;-2.742;2023-06-26T11:19:21;6.57;;;2.40;;
33862;SDS011;20158;51.436;-2.742;2023-06-26T11:21:47;4.47;;;2.30;;
33862;SDS011;20158;51.436;-2.742;2023-06-26T11:24:14;7.72;;;2.60;;
33862;SDS011;20158;51.436;-2.742;2023-06-26T11:26:41;6.22;;;2.25;;
33862;SDS011;20158;51.436;-2.742;2023-06-26T11:29:09;6.18;;;2.17;;
33862;SDS011;20158;51.436;-2.742;2023-06-26T11:31:37;3.65;;;2.00;;
33862;SDS011;20158;51.436;-2.742;2023-06-26T11:34:05;5.68;;;2.47;;
33862;SDS011;20158;51.436;-2.742;2023-06-26T11:36:38;3.63;;;1.92;;
33862;SDS011;20158;51.436;-2.742;2023-06-26T11:39:07;3.65;;;1.88;;
33862;SDS011;20158;51.436;-2.742;2023-06-26T11:41:34;3.58;;;1.88;;
33862;SDS011;20158;51.436;-2.742;2023-06-26T11:44:02;5.47;;;2.28;;
33862;SDS011;20158;51.436;-2.742;2023-06-26T11:46:28;4.53;;;2.10;;
33862;SDS011;20158;51.436;-2.742;2023-06-26T11:48:55;7.60;;;1.83;;
33862;SDS011;20158;51.436;-2.742;2023-06-26T11:51:22;3.10;;;1.50;;
33862;SDS011;20158;51.436;-2.742;2023-06-26T11:53:49;6.28;;;2.22;;
33862;SDS011;20158;51.436;-2.742;2023-06-26T11:56:15;3.35;;;1.58;;
33862;SDS011;20158;51.436;-2.742;2023-06-26T11:58:54;4.43;;;1.73;;
33862;SDS011;20158;51.436;-2.742;2023-06-26T12:01:41;5.68;;;1.92;;
33862;SDS011;20158;51.436;-2.742;2023-06-26T12:04:10;2.97;;;1.30;;
33862;SDS011;20158;51.436;-2.742;2023-06-26T12:09:11;2.35;;;1.25;;
33862;SDS011;20158;51.436;-2.742;2023-06-26T12:11:40;4.80;;;2.17;;
33862;SDS011;20158;51.436;-2.742;2023-06-26T12:14:08;3.70;;;1.65;;
33862;SDS011;20158;51.436;-2.742;2023-06-26T12:16:35;4.55;;;1.90;;
33862;SDS011;20158;51.436;-2.742;2023-06-26T12:19:06;3.38;;;1.23;;
33862;SDS011;20158;51.436;-2.742;2023-06-26T12:24:06;2.15;;;0.95;;
33862;SDS011;20158;51.436;-2.742;2023-06-26T12:26:34;5.70;;;1.88;;
33862;SDS011;20158;51.436;-2.742;2023-06-26T12:29:04;1.70;;;1.05;;
33862;SDS011;20158;51.436;-2.742;2023-06-26T12:31:31;2.75;;;1.10;;
33862;SDS011;20158;51.436;-2.742;2023-06-26T12:33:59;3.42;;;1.25;;
33862;SDS011;20158;51.436;-2.742;2023-06-26T12:36:29;2.97;;;1.20;;
33862;SDS011;20158;51.436;-2.742;2023-06-26T12:39:04;2.55;;;1.15;;
33862;SDS011;20158;51.436;-2.742;2023-06-26T12:41:48;2.30;;;1.30;;
33862;SDS011;20158;51.436;-2.742;2023-06-26T12:44:18;4.38;;;1.45;;
33862;SDS011;20158;51.436;-2.742;2023-06-26T12:46:46;2.47;;;0.95;;
33862;SDS011;20158;51.436;-2.742;2023-06-26T12:49:13;2.08;;;0.95;;
33862;SDS011;20158;51.436;-2.742;2023-06-26T12:51:51;3.63;;;1.33;;
33862;SDS011;20158;51.436;-2.742;2023-06-26T12:54:17;1.25;;;0.95;;
33862;SDS011;20158;51.436;-2.742;2023-06-26T12:56:42;1.75;;;0.80;;
33862;SDS011;20158;51.436;-2.742;2023-06-26T12:59:08;2.42;;;0.98;;
33862;SDS011;20158;51.436;-2.742;2023-06-26T13:01:35;3.35;;;1.05;;
33862;SDS011;20158;51.436;-2.742;2023-06-26T13:04:01;2.83;;;1.40;;
33862;SDS011;20158;51.436;-2.742;2023-06-26T13:06:28;3.30;;;1.42;;
33862;SDS011;20158;51.436;-2.742;2023-06-26T13:08:54;2.67;;;1.20;;
33862;SDS011;20158;51.436;-2.742;2023-06-26T13:11:21;1.90;;;1.20;;
33862;SDS011;20158;51.436;-2.742;2023-06-26T13:13:48;2.88;;;1.00;;
33862;SDS011;20158;51.436;-2.742;2023-06-26T13:16:14;1.98;;;0.98;;
33862;SDS011;20158;51.436;-2.742;2023-06-26T13:18:40;1.90;;;0.95;;
33862;SDS011;20158;51.436;-2.742;2023-06-26T13:21:06;2.13;;;1.13;;
33862;SDS011;20158;51.436;-2.742;2023-06-26T13:23:35;1.55;;;0.70;;
33862;SDS011;20158;51.436;-2.742;2023-06-26T13:26:01;2.70;;;1.25;;
33862;SDS011;20158;51.436;-2.742;2023-06-26T13:28:32;2.00;;;0.98;;
33862;SDS011;20158;51.436;-2.742;2023-06-26T13:30:58;2.03;;;0.80;;
33862;SDS011;20158;51.436;-2.742;2023-06-26T13:33:25;1.90;;;0.65;;
33862;SDS011;20158;51.436;-2.742;2023-06-26T13:35:54;3.13;;;1.15;;
33862;SDS011;20158;51.436;-2.742;2023-06-26T13:38:20;2.45;;;0.88;;
33862;SDS011;20158;51.436;-2.742;2023-06-26T13:40:53;2.55;;;1.10;;
33862;SDS011;20158;51.436;-2.742;2023-06-26T13:43:21;2.67;;;1.00;;
33862;SDS011;20158;51.436;-2.742;2023-06-26T13:45:47;1.67;;;0.75;;
33862;SDS011;20158;51.436;-2.742;2023-06-26T13:48:14;7.32;;;1.40;;
33862;SDS011;20158;51.436;-2.742;2023-06-26T13:50:40;5.30;;;1.30;;
33862;SDS011;20158;51.436;-2.742;2023-06-26T13:53:07;6.10;;;1.73;;
33862;SDS011;20158;51.436;-2.742;2023-06-26T13:55:42;8.00;;;1.58;;
33862;SDS011;20158;51.436;-2.742;2023-06-26T13:58:08;4.45;;;1.33;;
33862;SDS011;20158;51.436;-2.742;2023-06-26T14:00:35;4.85;;;1.58;;
33862;SDS011;20158;51.436;-2.742;2023-06-26T14:03:02;3.28;;;1.50;;
33862;SDS011;20158;51.436;-2.742;2023-06-26T14:05:32;4.75;;;1.75;;
33862;SDS011;20158;51.436;-2.742;2023-06-26T14:08:05;6.63;;;1.52;;
33862;SDS011;20158;51.436;-2.742;2023-06-26T14:10:32;6.22;;;1.27;;
33862;SDS011;20158;51.436;-2.742;2023-06-26T14:12:59;4.57;;;1.30;;
33862;SDS011;20158;51.436;-2.742;2023-06-26T14:15:29;3.08;;;1.27;;
33862;SDS011;20158;51.436;-2.742;2023-06-26T14:17:55;5.15;;;1.17;;
33862;SDS011;20158;51.436;-2.742;2023-06-26T14:20:22;3.83;;;0.98;;
33862;SDS011;20158;51.436;-2.742;2023-06-26T14:22:48;3.95;;;1.42;;
33862;SDS011;20158;51.436;-2.742;2023-06-26T14:25:18;4.15;;;1.40;;
33862;SDS011;20158;51.436;-2.742;2023-06-26T14:27:44;5.22;;;1.25;;
33862;SDS011;20158;51.436;-2.742;2023-06-26T14:30:10;6.35;;;1.70;;
33862;SDS011;20158;51.436;-2.742;2023-06-26T14:32:40;2.88;;;1.45;;
33862;SDS011;20158;51.436;-2.742;2023-06-26T14:35:06;3.85;;;1.48;;
33862;SDS011;20158;51.436;-2.742;2023-06-26T14:37:32;2.60;;;1.00;;
33862;SDS011;20158;51.436;-2.742;2023-06-26T14:40:01;6.55;;;1.85;;
33862;SDS011;20158;51.436;-2.742;2023-06-26T14:42:27;2.85;;;1.58;;
33862;SDS011;20158;51.436;-2.742;2023-06-26T14:44:53;4.72;;;1.40;;
33862;SDS011;20158;51.436;-2.742;2023-06-26T14:47:19;5.85;;;1.23;;
33862;SDS011;20158;51.436;-2.742;2023-06-26T14:49:45;4.07;;;1.50;;
33862;SDS011;20158;51.436;-2.742;2023-06-26T14:52:11;6.07;;;1.55;;
33862;SDS011;20158;51.436;-2.742;2023-06-26T14:54:38;3.85;;;1.38;;
33862;SDS011;20158;51.436;-2.742;2023-06-26T14:57:07;3.47;;;1.17;;
33862;SDS011;20158;51.436;-2.742;2023-06-26T14:59:33;5.50;;;1.42;;
33862;SDS011;20158;51.436;-2.742;2023-06-26T15:02:00;3.80;;;1.35;;
33862;SDS011;20158;51.436;-2.742;2023-06-26T15:04:31;5.80;;;1.45;;
33862;SDS011;20158;51.436;-2.742;2023-06-26T15:07:01;4.80;;;1.45;;
33862;SDS011;20158;51.436;-2.742;2023-06-26T15:09:39;3.78;;;1.40;;
33862;SDS011;20158;51.436;-2.742;2023-06-26T15:12:05;4.07;;;1.60;;